Terminal Aerodrome Forecast
Issued by NWS

Home | Current Version | Previous Version | Text Only | Print | Product List | Glossary On
Versions: 1 2 3 4 5 6 7 8 9 10 11 12 13 14
793
FTUS46 KMTR 241730
TAFOAK
TAF
KOAK 241730Z 2418/2524 28006KT P6SM BKN010
     FM241900 29015KT P6SM FEW011 FEW200
     FM250300 29018G24KT P6SM OVC011
     FM250800 29014G20KT P6SM OVC008
     FM251600 26007KT P6SM BKN010
     FM251800 26006KT P6SM SCT012
     FM252100 26014KT P6SM FEW012=

USA.gov is the U.S. government's official web portal to all federal, state and local government web resources and services.